Date,TemperatureHighF,TemperatureAvgF,TemperatureLowF,DewpointHighF,DewpointAvgF,DewpointLowF,HumidityHigh,HumidityAvg,HumidityLow,PressureMaxIn,PressureMinIn,WindSpeedMaxMPH,WindSpeedAvgMPH,GustSpeedMaxMPH,PrecipitationSumIn
2013-3-1,33,30,28,31,27,24,94,87,78,0.00,40.00,10,5,19,0.00
2013-3-2,31,27,23,27,24,22,96,89,72,0.00,40.00,9,6,17,0.00
2013-3-3,29,24,21,25,22,19,96,89,81,0.00,40.00,7,4,15,0.00
2013-3-4,25,22,21,19,18,16,90,83,70,0.00,40.00,9,5,17,0.00
2013-3-5,37,29,21,29,24,19,92,81,67,0.00,40.00,8,4,19,0.00
2013-3-6,36,33,30,30,25,19,93,71,52,0.00,40.00,11,6,24,0.00
2013-3-7,34,31,28,22,21,19,72,66,60,0.00,40.00,10,6,17,0.00
2013-3-8,41,32,27,23,21,20,78,65,42,0.00,40.00,11,5,20,0.00
2013-3-9,49,35,23,22,19,15,90,58,26,0.00,40.00,7,2,11,0.00
2013-3-10,29,26,25,22,21,20,84,80,70,0.00,40.00,1,0,2,0.00
2013-3-11,46,41,35,30,28,27,77,60,47,0.00,40.00,12,6,22,0.00
2013-3-12,47,43,36,47,41,29,100,91,57,0.00,40.00,11,6,20,0.00
2013-3-13,39,35,28,36,30,24,100,84,56,0.00,40.00,7,3,15,0.00
2013-3-14,28,22,12,27,15,3,99,75,54,0.00,40.00,0,0,0,0.00
2013-3-15,30,20,10,26,12,4,98,71,36,0.00,40.00,7,2,15,0.00
2013-3-16,25,20,15,21,12,5,96,71,45,0.00,40.00,8,3,15,0.00
2013-3-17,21,13,3,11,2,-7,93,65,31,0.00,40.00,14,3,27,0.00
2013-3-18,31,16,-2,6,-1,-5,87,51,24,0.00,40.00,5,1,10,0.00
2013-3-19,29,25,21,27,22,3,99,89,35,0.00,40.00,9,4,17,0.00
2013-3-20,30,24,20,26,20,16,98,86,59,0.00,40.00,9,3,22,0.00
2013-3-21,35,25,15,16,12,7,90,62,31,0.00,40.00,9,3,15,0.00
2013-3-22,33,22,10,23,15,9,95,74,46,0.00,40.00,6,2,17,0.00
2013-3-23,31,27,22,24,22,18,93,79,62,0.00,40.00,13,6,27,0.00
2013-3-24,35,31,27,25,23,21,87,72,55,0.00,40.00,8,4,20,0.00
2013-3-25,43,31,14,25,20,13,97,67,39,0.00,40.00,8,3,15,0.00
2013-3-26,42,35,29,25,22,17,78,60,39,0.00,40.00,10,4,19,0.00
2013-3-27,41,33,23,33,27,22,99,79,54,0.00,40.00,10,3,19,0.00
2013-3-28,44,37,32,33,32,30,100,82,58,0.00,40.00,9,3,17,0.00
2013-3-29,45,39,35,36,32,27,93,76,50,0.00,40.00,9,3,17,0.00
2013-3-30,46,37,28,32,20,8,99,58,23,0.00,40.00,10,3,24,0.00
2013-3-31,54,38,21,36,19,-100,90,53,23,0.00,40.00,13,5,26,0.00